Time;durP1;ratioP1;P1;durP2;ratioP2;P2;SDS_P1;SDS_P2;PMS_P1;PMS_P2;Temp;Humidity;BMP_temperature;BMP_pressure;BME280_temperature;BME280_humidity;BME280_pressure;Samples;Min_cycle;Max_cycle;Signal;HPM_P1;HPM_P2
2021/06/30 00:01:17;;;;;;;14.82;7.85;;;;;;;;;;5075272;28;20040;-73
2021/06/30 00:04:02;;;;;;;9.75;5.40;;;;;;;;;;5080414;28;20035;-71
2021/06/30 00:12:17;;;;;;;11.25;7.90;;;;;;;;;;4999363;27;2248038;-78
2021/06/30 00:15:06;;;;;;;16.95;9.60;;;;;;;;;;5066440;28;20033;-73
2021/06/30 00:17:53;;;;;;;6.78;4.22;;;;;;;;;;5070262;28;20391;-72
2021/06/30 00:20:38;;;;;;;5.40;2.50;;;;;;;;;;5053972;28;21062;-78
2021/06/30 00:23:23;;;;;;;8.20;4.80;;;;;;;;;;5039207;28;20396;-71
2021/06/30 00:26:08;;;;;;;11.02;5.60;;;;;;;;;;5013951;28;20033;-72
2021/06/30 00:28:54;;;;;;;9.48;5.13;;;;;;;;;;5037031;28;20041;-71
2021/06/30 00:31:39;;;;;;;14.07;6.72;;;;;;;;;;5070311;28;20048;-71
2021/06/30 00:34:24;;;;;;;6.47;3.63;;;;;;;;;;5064873;28;20036;-80
2021/06/30 00:37:09;;;;;;;7.10;3.85;;;;;;;;;;5067853;28;20045;-80
2021/06/30 00:39:53;;;;;;;15.27;8.82;;;;;;;;;;5067273;28;20037;-78
2021/06/30 00:42:39;;;;;;;7.47;4.28;;;;;;;;;;5059494;28;20550;-74
2021/06/30 00:45:24;;;;;;;6.65;3.22;;;;;;;;;;5069612;28;20032;-75
2021/06/30 00:48:10;;;;;;;5.32;3.30;;;;;;;;;;5067454;28;20044;-73
2021/06/30 00:50:55;;;;;;;6.35;3.70;;;;;;;;;;5076373;28;20044;-81
2021/06/30 00:53:40;;;;;;;10.00;5.22;;;;;;;;;;5037420;28;20037;-72
2021/06/30 00:56:26;;;;;;;7.38;4.63;;;;;;;;;;5063712;28;20040;-73
2021/06/30 00:59:12;;;;;;;30.13;14.05;;;;;;;;;;5075826;28;20032;-74
2021/06/30 01:01:57;;;;;;;8.85;6.97;;;;;;;;;;5071151;28;20453;-71
2021/06/30 01:04:43;;;;;;;11.95;7.78;;;;;;;;;;5077045;28;20036;-70
2021/06/30 01:07:27;;;;;;;7.60;3.70;;;;;;;;;;5065157;28;20510;-71
2021/06/30 01:10:12;;;;;;;6.05;3.90;;;;;;;;;;5070946;28;20037;-69
2021/06/30 01:12:57;;;;;;;9.00;4.30;;;;;;;;;;5054305;28;20558;-70
2021/06/30 01:16:00;;;;;;;7.22;3.95;;;;;;;;;;5054992;28;20032;-70
2021/06/30 01:18:45;;;;;;;7.38;4.15;;;;;;;;;;5069415;28;20040;-74
2021/06/30 01:21:30;;;;;;;9.82;7.25;;;;;;;;;;4982301;28;105754;-70
2021/06/30 01:24:16;;;;;;;16.85;12.82;;;;;;;;;;5035437;28;20551;-71
2021/06/30 01:27:01;;;;;;;10.57;7.20;;;;;;;;;;5023955;28;20044;-73
2021/06/30 01:29:47;;;;;;;5.88;2.80;;;;;;;;;;5031356;28;20033;-71
2021/06/30 01:32:32;;;;;;;8.45;4.53;;;;;;;;;;5044428;28;20511;-70
2021/06/30 01:35:22;;;;;;;6.45;4.38;;;;;;;;;;5037283;28;20037;-70
2021/06/30 01:38:07;;;;;;;7.53;5.25;;;;;;;;;;5025696;28;20049;-72
2021/06/30 01:40:54;;;;;;;8.30;5.88;;;;;;;;;;5025152;28;20041;-70
2021/06/30 01:43:39;;;;;;;9.38;5.38;;;;;;;;;;5035308;28;20029;-69
2021/06/30 01:46:24;;;;;;;9.15;4.38;;;;;;;;;;5044224;28;20041;-78
2021/06/30 01:49:09;;;;;;;9.02;7.07;;;;;;;;;;5049801;28;20445;-69
2021/06/30 01:51:54;;;;;;;12.05;9.00;;;;;;;;;;5044004;28;20479;-70
2021/06/30 01:54:39;;;;;;;9.52;6.90;;;;;;;;;;5045951;28;20041;-71
2021/06/30 01:57:24;;;;;;;6.15;3.55;;;;;;;;;;5045153;28;20495;-70
2021/06/30 02:00:10;;;;;;;6.68;4.05;;;;;;;;;;5044564;28;20041;-70
2021/06/30 02:02:55;;;;;;;10.25;4.60;;;;;;;;;;5032527;28;20360;-71
2021/06/30 02:05:40;;;;;;;8.77;7.15;;;;;;;;;;5043464;28;20148;-70
2021/06/30 02:08:25;;;;;;;6.25;3.97;;;;;;;;;;5042816;28;20033;-71
2021/06/30 02:11:10;;;;;;;5.93;4.15;;;;;;;;;;5044885;28;20412;-70
2021/06/30 02:13:55;;;;;;;9.95;5.22;;;;;;;;;;5042315;28;20037;-71
2021/06/30 02:16:41;;;;;;;5.15;3.53;;;;;;;;;;5048456;28;20388;-72
2021/06/30 02:19:25;;;;;;;5.32;3.60;;;;;;;;;;5043272;28;20033;-71
2021/06/30 02:22:11;;;;;;;4.47;2.60;;;;;;;;;;5043255;28;20053;-71
2021/06/30 02:24:58;;;;;;;7.15;3.03;;;;;;;;;;5024931;28;20034;-70
2021/06/30 02:27:43;;;;;;;5.60;3.03;;;;;;;;;;5024574;28;20041;-71
2021/06/30 02:30:29;;;;;;;7.68;4.82;;;;;;;;;;5043859;28;20041;-71
2021/06/30 02:33:14;;;;;;;4.93;2.65;;;;;;;;;;5043067;28;20041;-70
2021/06/30 02:35:59;;;;;;;6.90;3.45;;;;;;;;;;5042789;28;20049;-75
2021/06/30 02:38:44;;;;;;;4.57;2.80;;;;;;;;;;5042872;28;20036;-73
2021/06/30 02:41:29;;;;;;;7.65;4.13;;;;;;;;;;5023179;28;20041;-71
2021/06/30 02:44:13;;;;;;;9.80;3.60;;;;;;;;;;5042800;28;20041;-71
2021/06/30 02:46:59;;;;;;;9.18;4.55;;;;;;;;;;5044028;28;20041;-71
2021/06/30 02:49:44;;;;;;;8.23;4.65;;;;;;;;;;5044333;28;20037;-71
2021/06/30 02:52:29;;;;;;;4.88;2.20;;;;;;;;;;5041898;28;20045;-70
2021/06/30 02:55:15;;;;;;;6.80;3.88;;;;;;;;;;5034078;28;20041;-76
2021/06/30 02:58:00;;;;;;;8.88;4.40;;;;;;;;;;5043826;28;20033;-70
2021/06/30 03:00:45;;;;;;;9.27;4.47;;;;;;;;;;5044438;28;20037;-69
2021/06/30 03:03:30;;;;;;;7.55;2.90;;;;;;;;;;5043463;28;20041;-71
2021/06/30 03:06:15;;;;;;;5.43;2.67;;;;;;;;;;5042793;28;20037;-70
2021/06/30 03:09:00;;;;;;;7.82;3.88;;;;;;;;;;5023775;28;20033;-71
2021/06/30 03:11:45;;;;;;;6.10;3.40;;;;;;;;;;5033442;28;20045;-71
2021/06/30 03:14:31;;;;;;;7.57;4.38;;;;;;;;;;5042339;28;20036;-69
2021/06/30 03:17:17;;;;;;;10.52;5.53;;;;;;;;;;5042970;28;20037;-70
2021/06/30 03:20:03;;;;;;;6.57;3.03;;;;;;;;;;5043490;28;20037;-73
2021/06/30 03:22:48;;;;;;;4.82;2.58;;;;;;;;;;5042540;28;20037;-71
2021/06/30 03:25:33;;;;;;;3.47;2.10;;;;;;;;;;5034872;28;20396;-70
2021/06/30 03:28:18;;;;;;;2.78;1.67;;;;;;;;;;5042190;28;20376;-69
2021/06/30 03:31:02;;;;;;;3.25;1.52;;;;;;;;;;5040539;28;20037;-69
2021/06/30 03:33:48;;;;;;;3.13;1.67;;;;;;;;;;5046477;28;20580;-76
2021/06/30 03:36:32;;;;;;;6.28;3.80;;;;;;;;;;5042139;28;20045;-73
2021/06/30 03:39:17;;;;;;;7.07;3.88;;;;;;;;;;5042521;28;20380;-70
2021/06/30 03:42:02;;;;;;;5.72;2.30;;;;;;;;;;5042855;28;20373;-73
2021/06/30 03:44:47;;;;;;;8.48;3.65;;;;;;;;;;5025923;28;20037;-71
2021/06/30 03:47:33;;;;;;;3.03;1.50;;;;;;;;;;5027095;28;20041;-70
2021/06/30 03:50:18;;;;;;;8.57;2.90;;;;;;;;;;5041721;28;20041;-69
2021/06/30 03:53:03;;;;;;;11.10;5.03;;;;;;;;;;5042213;28;20041;-69
2021/06/30 03:55:48;;;;;;;6.53;3.33;;;;;;;;;;5042192;28;20037;-72
2021/06/30 03:58:32;;;;;;;9.20;5.07;;;;;;;;;;5041684;28;20037;-69
2021/06/30 04:01:18;;;;;;;13.63;6.13;;;;;;;;;;5041915;28;20036;-69
2021/06/30 04:04:06;;;;;;;3.28;1.80;;;;;;;;;;5041884;28;20041;-69
2021/06/30 04:06:51;;;;;;;8.60;4.57;;;;;;;;;;5041609;28;20041;-69
2021/06/30 04:09:36;;;;;;;6.38;2.05;;;;;;;;;;5042424;28;20041;-69
2021/06/30 04:12:21;;;;;;;6.18;4.03;;;;;;;;;;5042605;28;20392;-69
2021/06/30 04:15:07;;;;;;;5.45;3.20;;;;;;;;;;5042921;28;20033;-69
2021/06/30 04:17:52;;;;;;;5.38;4.38;;;;;;;;;;5042271;28;20037;-70
2021/06/30 04:20:40;;;;;;;7.15;4.40;;;;;;;;;;5042843;28;20388;-69
2021/06/30 04:23:25;;;;;;;3.67;2.72;;;;;;;;;;5042817;28;20041;-70
2021/06/30 04:26:10;;;;;;;2.58;1.60;;;;;;;;;;5040677;28;20045;-69
2021/06/30 04:28:55;;;;;;;4.25;1.88;;;;;;;;;;5042475;28;20491;-70
2021/06/30 04:31:40;;;;;;;5.20;2.38;;;;;;;;;;5041969;28;20514;-69
2021/06/30 04:34:24;;;;;;;4.13;1.75;;;;;;;;;;5041589;28;20037;-69
2021/06/30 04:37:09;;;;;;;4.05;1.75;;;;;;;;;;5041102;28;20033;-70
2021/06/30 04:39:54;;;;;;;3.53;1.92;;;;;;;;;;5031698;28;20388;-73
2021/06/30 04:42:39;;;;;;;1.60;1.00;;;;;;;;;;5041581;28;20384;-71
2021/06/30 04:45:23;;;;;;;4.05;1.60;;;;;;;;;;5042677;28;20037;-71
2021/06/30 04:48:09;;;;;;;4.25;1.52;;;;;;;;;;5042780;28;20045;-70
2021/06/30 04:50:54;;;;;;;11.25;5.53;;;;;;;;;;5042007;28;20508;-69
2021/06/30 04:53:39;;;;;;;7.32;2.03;;;;;;;;;;5041661;28;20037;-70
2021/06/30 04:56:39;;;;;;;7.15;3.78;;;;;;;;;;5041948;28;20041;-70
2021/06/30 04:59:24;;;;;;;4.88;2.50;;;;;;;;;;5045413;28;20400;-69
2021/06/30 05:02:09;;;;;;;3.42;1.30;;;;;;;;;;5045516;28;20391;-70
2021/06/30 05:04:54;;;;;;;5.93;2.30;;;;;;;;;;5045764;28;20033;-73
2021/06/30 05:07:39;;;;;;;5.20;1.73;;;;;;;;;;5045652;28;20033;-71
2021/06/30 05:10:25;;;;;;;6.20;1.92;;;;;;;;;;5035659;28;20392;-70
2021/06/30 05:13:10;;;;;;;4.20;1.90;;;;;;;;;;5033087;28;20053;-69
2021/06/30 05:15:55;;;;;;;2.65;1.45;;;;;;;;;;5045530;28;20491;-69
2021/06/30 05:18:40;;;;;;;3.42;1.30;;;;;;;;;;5044641;28;20552;-69
2021/06/30 05:21:25;;;;;;;2.53;1.25;;;;;;;;;;5046100;28;20045;-74
2021/06/30 05:24:10;;;;;;;4.25;1.67;;;;;;;;;;5045138;28;20048;-70
2021/06/30 05:26:55;;;;;;;7.30;1.92;;;;;;;;;;5044277;28;20036;-69
2021/06/30 05:29:40;;;;;;;4.65;1.50;;;;;;;;;;5044687;28;20499;-68
2021/06/30 05:32:25;;;;;;;5.53;1.52;;;;;;;;;;5044995;28;20049;-70
2021/06/30 05:35:10;;;;;;;3.38;1.00;;;;;;;;;;5045771;28;20041;-69
2021/06/30 05:37:55;;;;;;;3.70;1.45;;;;;;;;;;5045799;28;20045;-70
2021/06/30 05:40:40;;;;;;;2.13;1.13;;;;;;;;;;5045103;28;20037;-68
2021/06/30 05:43:25;;;;;;;5.15;1.30;;;;;;;;;;5045578;28;20040;-69
2021/06/30 05:46:10;;;;;;;3.05;1.20;;;;;;;;;;5043835;28;20041;-69
2021/06/30 05:48:56;;;;;;;3.40;1.73;;;;;;;;;;5045448;28;20495;-69
2021/06/30 05:51:41;;;;;;;5.65;1.55;;;;;;;;;;5045289;28;21065;-70
2021/06/30 05:54:26;;;;;;;5.55;2.05;;;;;;;;;;5046568;28;20381;-71
2021/06/30 05:57:11;;;;;;;2.25;1.35;;;;;;;;;;5044843;28;20033;-71
2021/06/30 05:59:56;;;;;;;4.63;1.30;;;;;;;;;;5044673;28;20037;-70
2021/06/30 06:02:41;;;;;;;4.25;1.38;;;;;;;;;;5044973;28;20318;-70
2021/06/30 06:05:26;;;;;;;3.20;1.23;;;;;;;;;;5045102;28;20384;-71
2021/06/30 06:08:11;;;;;;;1.55;1.05;;;;;;;;;;5044282;28;20045;-77
2021/06/30 06:10:56;;;;;;;3.67;1.05;;;;;;;;;;5044719;28;20040;-73
2021/06/30 06:13:44;;;;;;;2.00;1.10;;;;;;;;;;5044896;28;20029;-71
2021/06/30 06:16:31;;;;;;;3.33;1.20;;;;;;;;;;5043994;28;20037;-69
2021/06/30 06:19:16;;;;;;;5.43;1.35;;;;;;;;;;5043629;28;20481;-69
2021/06/30 06:22:04;;;;;;;1.98;1.13;;;;;;;;;;5044843;28;20423;-76
2021/06/30 06:24:49;;;;;;;2.53;1.25;;;;;;;;;;5045065;28;20033;-70
2021/06/30 06:27:35;;;;;;;2.80;1.40;;;;;;;;;;5043033;28;20429;-70
2021/06/30 06:30:20;;;;;;;2.13;1.17;;;;;;;;;;5044792;28;20247;-71
2021/06/30 06:33:05;;;;;;;3.22;1.63;;;;;;;;;;5043550;28;20400;-70
2021/06/30 06:35:50;;;;;;;2.30;1.40;;;;;;;;;;5044381;28;20040;-70
2021/06/30 06:38:36;;;;;;;2.72;1.38;;;;;;;;;;5043849;28;20033;-70
2021/06/30 06:41:21;;;;;;;1.95;1.02;;;;;;;;;;5044612;28;20033;-71
2021/06/30 06:44:07;;;;;;;2.85;1.25;;;;;;;;;;5043435;28;20505;-71
2021/06/30 06:46:51;;;;;;;4.75;1.40;;;;;;;;;;5043764;28;20392;-71
2021/06/30 06:49:37;;;;;;;6.38;2.80;;;;;;;;;;5044478;28;20384;-70
2021/06/30 06:52:22;;;;;;;4.22;1.20;;;;;;;;;;5043526;28;20439;-70
2021/06/30 06:55:10;;;;;;;3.70;1.50;;;;;;;;;;5042189;28;20033;-77
2021/06/30 06:57:55;;;;;;;3.85;1.33;;;;;;;;;;5043213;28;20037;-70
2021/06/30 07:00:40;;;;;;;3.80;1.33;;;;;;;;;;5042998;28;20033;-76
2021/06/30 07:03:24;;;;;;;4.03;1.20;;;;;;;;;;5043322;28;20041;-71
2021/06/30 07:06:09;;;;;;;2.58;1.17;;;;;;;;;;5043361;28;20041;-72
2021/06/30 07:08:54;;;;;;;5.28;1.23;;;;;;;;;;5043251;28;20045;-71
2021/06/30 07:11:40;;;;;;;4.25;1.08;;;;;;;;;;5031744;28;20049;-70
2021/06/30 07:14:24;;;;;;;4.88;1.30;;;;;;;;;;5041051;28;20544;-71
2021/06/30 07:17:09;;;;;;;2.63;1.35;;;;;;;;;;5043119;28;20040;-70
2021/06/30 07:19:54;;;;;;;3.20;1.23;;;;;;;;;;5041606;28;20531;-71
2021/06/30 07:22:39;;;;;;;3.45;1.25;;;;;;;;;;5043158;28;20033;-71
2021/06/30 07:25:23;;;;;;;2.05;0.90;;;;;;;;;;5043425;28;20565;-76
2021/06/30 07:28:09;;;;;;;4.10;1.20;;;;;;;;;;5043718;28;20041;-72
2021/06/30 07:30:54;;;;;;;3.20;1.27;;;;;;;;;;5042847;28;20388;-71
2021/06/30 07:33:40;;;;;;;3.63;1.30;;;;;;;;;;5042657;28;20033;-70
2021/06/30 07:36:25;;;;;;;5.57;1.25;;;;;;;;;;5042548;28;20491;-76
2021/06/30 07:39:10;;;;;;;4.22;1.40;;;;;;;;;;5034471;28;20037;-73
2021/06/30 07:41:55;;;;;;;3.28;1.20;;;;;;;;;;5042716;28;20033;-72
2021/06/30 07:44:40;;;;;;;3.03;1.20;;;;;;;;;;5042364;28;20170;-71
2021/06/30 07:47:24;;;;;;;1.65;0.93;;;;;;;;;;5040406;28;20041;-70
2021/06/30 07:50:10;;;;;;;3.35;1.08;;;;;;;;;;5042015;28;20495;-69
2021/06/30 07:52:55;;;;;;;3.58;1.10;;;;;;;;;;5023322;28;20045;-69
2021/06/30 07:55:39;;;;;;;4.35;1.40;;;;;;;;;;5022087;28;20037;-70
2021/06/30 07:58:24;;;;;;;2.92;1.20;;;;;;;;;;5022849;28;20041;-75
2021/06/30 08:01:09;;;;;;;4.45;1.50;;;;;;;;;;5039519;28;20326;-72
2021/06/30 08:03:54;;;;;;;2.53;1.55;;;;;;;;;;5042802;28;20037;-72
2021/06/30 08:06:39;;;;;;;3.08;1.10;;;;;;;;;;5043586;28;20500;-72
2021/06/30 08:09:24;;;;;;;4.55;1.25;;;;;;;;;;5041224;28;20045;-71
2021/06/30 08:12:09;;;;;;;1.67;1.17;;;;;;;;;;5042294;28;20041;-70
2021/06/30 08:14:54;;;;;;;2.17;1.30;;;;;;;;;;5042396;28;20576;-70
2021/06/30 08:17:42;;;;;;;5.65;1.33;;;;;;;;;;5041802;28;20388;-75
2021/06/30 08:20:27;;;;;;;3.83;1.20;;;;;;;;;;5043170;28;20041;-71
2021/06/30 08:23:13;;;;;;;5.07;1.20;;;;;;;;;;5044223;28;20037;-75
2021/06/30 08:25:57;;;;;;;3.92;1.10;;;;;;;;;;5035683;28;20384;-72
2021/06/30 08:28:42;;;;;;;2.50;1.27;;;;;;;;;;5041645;28;20033;-71
2021/06/30 08:31:28;;;;;;;3.42;1.50;;;;;;;;;;5042911;28;20378;-71
2021/06/30 08:34:12;;;;;;;3.03;1.20;;;;;;;;;;5044487;28;20618;-70
2021/06/30 08:37:03;;;;;;;3.03;1.40;;;;;;;;;;5047081;28;20503;-69
2021/06/30 08:39:52;;;;;;;3.53;1.35;;;;;;;;;;5039191;28;20040;-70
2021/06/30 08:42:37;;;;;;;3.67;1.40;;;;;;;;;;5046605;28;20041;-69
2021/06/30 08:45:22;;;;;;;4.85;1.65;;;;;;;;;;5045917;28;20339;-70
2021/06/30 08:48:08;;;;;;;2.25;1.20;;;;;;;;;;5045311;28;20037;-70
2021/06/30 08:50:56;;;;;;;2.30;1.00;;;;;;;;;;5043563;28;20037;-71
2021/06/30 08:53:44;;;;;;;5.13;1.10;;;;;;;;;;5046506;28;20674;-70
2021/06/30 08:56:32;;;;;;;4.00;1.25;;;;;;;;;;5054382;28;20384;-70
2021/06/30 08:59:17;;;;;;;4.10;1.30;;;;;;;;;;5026309;28;20033;-71
2021/06/30 09:02:03;;;;;;;4.88;1.60;;;;;;;;;;5045819;28;20037;-76
2021/06/30 09:05:12;;;;;;;5.57;2.88;;;;;;;;;;5045704;28;20041;-71
2021/06/30 09:07:56;;;;;;;2.63;1.60;;;;;;;;;;5043822;28;20045;-70
2021/06/30 09:10:41;;;;;;;1.92;1.58;;;;;;;;;;5045604;28;20037;-69
2021/06/30 09:13:27;;;;;;;4.90;2.00;;;;;;;;;;5046244;28;20041;-70
2021/06/30 09:16:12;;;;;;;2.03;1.17;;;;;;;;;;5045375;28;20384;-69
2021/06/30 09:18:57;;;;;;;2.85;1.52;;;;;;;;;;5044616;28;20040;-74
2021/06/30 09:21:42;;;;;;;6.03;1.92;;;;;;;;;;5046118;28;20041;-71
2021/06/30 09:24:27;;;;;;;4.05;2.00;;;;;;;;;;5045394;28;20037;-70
2021/06/30 09:27:13;;;;;;;4.53;1.98;;;;;;;;;;5044119;28;20037;-70
2021/06/30 09:30:05;;;;;;;3.65;1.92;;;;;;;;;;5041514;28;20537;-70
2021/06/30 09:32:54;;;;;;;4.22;2.00;;;;;;;;;;5043515;28;20045;-72
2021/06/30 09:35:39;;;;;;;3.53;1.80;;;;;;;;;;5045293;28;20045;-70
2021/06/30 09:38:31;;;;;;;2.47;1.67;;;;;;;;;;5032454;28;20036;-74
2021/06/30 09:41:26;;;;;;;3.55;1.70;;;;;;;;;;5053607;28;20044;-70
2021/06/30 09:44:11;;;;;;;2.78;1.80;;;;;;;;;;5045455;28;20033;-70
2021/06/30 09:46:56;;;;;;;4.38;1.70;;;;;;;;;;5044101;28;20040;-71
2021/06/30 09:49:41;;;;;;;3.50;1.52;;;;;;;;;;5034443;28;20381;-70
2021/06/30 09:52:27;;;;;;;4.63;1.67;;;;;;;;;;5044470;28;20045;-72
2021/06/30 09:55:22;;;;;;;8.15;1.92;;;;;;;;;;5044106;28;20037;-71
2021/06/30 09:58:07;;;;;;;5.88;1.90;;;;;;;;;;5044893;28;20045;-77
2021/06/30 10:01:10;;;;;;;3.55;1.83;;;;;;;;;;5041692;28;20727;-72
2021/06/30 10:03:55;;;;;;;2.80;1.65;;;;;;;;;;5043906;28;20033;-69
2021/06/30 10:06:40;;;;;;;7.75;2.40;;;;;;;;;;5043033;28;20037;-78
2021/06/30 10:09:25;;;;;;;4.57;1.60;;;;;;;;;;5044446;28;20037;-74
2021/06/30 10:12:11;;;;;;;5.55;2.10;;;;;;;;;;5043468;28;20499;-70
2021/06/30 10:14:58;;;;;;;3.40;2.10;;;;;;;;;;5043780;28;20033;-70
2021/06/30 10:17:43;;;;;;;3.55;1.85;;;;;;;;;;5045176;28;20029;-70
2021/06/30 10:20:31;;;;;;;4.20;2.80;;;;;;;;;;5044453;28;20044;-70
2021/06/30 10:23:17;;;;;;;5.82;3.22;;;;;;;;;;5044326;28;20483;-71
2021/06/30 10:26:02;;;;;;;11.30;4.38;;;;;;;;;;5044758;28;20045;-70
2021/06/30 10:28:50;;;;;;;8.45;4.45;;;;;;;;;;5044732;28;20033;-70
2021/06/30 10:31:36;;;;;;;7.47;5.30;;;;;;;;;;5043678;28;20029;-70
2021/06/30 10:34:31;;;;;;;8.75;4.18;;;;;;;;;;5044748;28;20376;-71
2021/06/30 10:37:19;;;;;;;11.90;6.88;;;;;;;;;;5044156;28;20037;-70
2021/06/30 10:40:04;;;;;;;8.70;6.03;;;;;;;;;;5043993;28;20475;-70
2021/06/30 10:43:13;;;;;;;9.05;5.18;;;;;;;;;;5044680;28;20041;-70
2021/06/30 10:46:17;;;;;;;10.07;4.10;;;;;;;;;;5030767;28;20041;-76
2021/06/30 10:49:14;;;;;;;6.97;4.30;;;;;;;;;;5043831;28;20055;-70
2021/06/30 10:52:00;;;;;;;9.35;3.67;;;;;;;;;;5036131;28;20053;-70
2021/06/30 10:54:46;;;;;;;7.75;3.20;;;;;;;;;;5042740;28;20037;-70
2021/06/30 10:57:31;;;;;;;7.95;3.15;;;;;;;;;;5044050;28;20036;-69
2021/06/30 11:00:17;;;;;;;5.47;3.35;;;;;;;;;;5044082;28;20044;-78
2021/06/30 11:03:20;;;;;;;9.02;2.97;;;;;;;;;;5043202;28;20045;-71
2021/06/30 11:06:16;;;;;;;7.10;3.25;;;;;;;;;;5023367;28;20228;-78
2021/06/30 11:09:05;;;;;;;5.55;2.70;;;;;;;;;;5042573;28;20489;-69
2021/06/30 11:11:54;;;;;;;5.20;2.35;;;;;;;;;;5023275;28;20057;-76
2021/06/30 11:14:40;;;;;;;6.30;3.03;;;;;;;;;;5024208;28;20397;-72
2021/06/30 11:17:33;;;;;;;3.17;1.92;;;;;;;;;;5043313;28;20045;-68
2021/06/30 11:20:37;;;;;;;5.10;3.10;;;;;;;;;;5042753;28;20037;-69
2021/06/30 11:23:23;;;;;;;5.55;3.03;;;;;;;;;;5023618;28;20045;-70
2021/06/30 11:26:27;;;;;;;6.38;3.25;;;;;;;;;;5043787;28;20388;-76
2021/06/30 11:29:31;;;;;;;10.40;3.42;;;;;;;;;;5022707;28;20037;-69
2021/06/30 11:32:32;;;;;;;4.95;2.88;;;;;;;;;;5019925;28;20045;-69
2021/06/30 11:35:22;;;;;;;5.88;2.65;;;;;;;;;;5056230;28;20388;-70
2021/06/30 11:38:12;;;;;;;4.68;2.85;;;;;;;;;;5043157;28;20099;-70
2021/06/30 11:41:11;;;;;;;9.20;2.90;;;;;;;;;;5043551;28;20088;-70
2021/06/30 11:43:56;;;;;;;5.38;2.17;;;;;;;;;;5040994;28;20066;-70
2021/06/30 11:46:42;;;;;;;7.13;2.67;;;;;;;;;;5042580;28;20053;-70
2021/06/30 11:49:27;;;;;;;5.90;2.63;;;;;;;;;;5042560;28;20041;-69
2021/06/30 11:52:14;;;;;;;6.80;2.60;;;;;;;;;;5043365;28;20048;-69
2021/06/30 11:54:59;;;;;;;5.00;2.97;;;;;;;;;;5042119;28;20045;-69
2021/06/30 11:57:51;;;;;;;6.53;3.10;;;;;;;;;;5043105;28;20384;-69
2021/06/30 12:00:43;;;;;;;8.05;2.38;;;;;;;;;;5043385;28;20483;-71
2021/06/30 12:03:29;;;;;;;4.63;2.38;;;;;;;;;;5022354;28;20037;-69
2021/06/30 12:06:40;;;;;;;6.25;2.47;;;;;;;;;;5042460;28;20037;-70
2021/06/30 12:09:30;;;;;;;5.28;2.80;;;;;;;;;;5042581;28;20290;-69
2021/06/30 12:12:16;;;;;;;4.53;2.90;;;;;;;;;;5041603;28;20045;-75
2021/06/30 12:15:03;;;;;;;7.82;3.70;;;;;;;;;;5040917;28;20041;-75
2021/06/30 12:17:50;;;;;;;6.97;2.90;;;;;;;;;;5039919;28;20495;-75
2021/06/30 12:20:35;;;;;;;4.95;2.67;;;;;;;;;;5041127;28;20454;-77
2021/06/30 12:23:20;;;;;;;5.05;2.50;;;;;;;;;;5042389;28;20040;-75
2021/06/30 12:26:05;;;;;;;5.63;2.58;;;;;;;;;;5055068;28;20041;-74
2021/06/30 12:28:50;;;;;;;6.43;2.83;;;;;;;;;;5037446;28;20352;-77
2021/06/30 12:31:35;;;;;;;7.50;4.00;;;;;;;;;;5025697;28;20402;-76
2021/06/30 12:34:21;;;;;;;6.28;3.55;;;;;;;;;;5022967;28;20400;-75
2021/06/30 12:37:09;;;;;;;6.78;2.92;;;;;;;;;;5040484;28;20033;-75
2021/06/30 12:39:58;;;;;;;9.75;3.83;;;;;;;;;;5031004;28;20423;-75
2021/06/30 12:42:45;;;;;;;8.55;3.28;;;;;;;;;;5031731;28;20045;-74
2021/06/30 12:45:37;;;;;;;10.00;3.30;;;;;;;;;;5028594;28;20041;-75
2021/06/30 12:48:29;;;;;;;11.23;4.82;;;;;;;;;;5044494;28;20143;-77
2021/06/30 12:51:24;;;;;;;8.75;3.80;;;;;;;;;;5032465;28;20037;-77
2021/06/30 12:54:08;;;;;;;11.50;5.50;;;;;;;;;;5031931;28;20053;-74
2021/06/30 12:57:05;;;;;;;9.40;4.18;;;;;;;;;;5024491;28;20028;-75
2021/06/30 13:00:17;;;;;;;9.57;3.20;;;;;;;;;;5034789;28;20496;-76
2021/06/30 13:03:18;;;;;;;5.25;3.28;;;;;;;;;;5027844;28;20544;-74
2021/06/30 13:06:10;;;;;;;9.48;4.15;;;;;;;;;;5036294;28;20037;-82
2021/06/30 13:09:02;;;;;;;6.32;3.72;;;;;;;;;;5044961;28;20049;-78
2021/06/30 13:11:48;;;;;;;8.85;4.88;;;;;;;;;;5018704;28;20052;-77
2021/06/30 13:14:36;;;;;;;10.27;5.03;;;;;;;;;;5030106;28;20037;-83
2021/06/30 13:17:24;;;;;;;10.82;4.88;;;;;;;;;;5020945;28;20037;-83
2021/06/30 13:20:22;;;;;;;9.35;5.25;;;;;;;;;;5033173;28;20033;-80
2021/06/30 13:23:08;;;;;;;10.18;4.47;;;;;;;;;;5000948;28;20045;-79
2021/06/30 13:26:03;;;;;;;11.40;4.18;;;;;;;;;;5017368;28;20041;-79
2021/06/30 13:35:28;;;;;;;7.93;3.42;;;;;;;;;;5044559;28;20033;-81
2021/06/30 13:38:19;;;;;;;6.70;3.60;;;;;;;;;;4978872;28;20460;-86
2021/06/30 13:41:07;;;;;;;7.63;3.47;;;;;;;;;;5020188;28;20041;-79
2021/06/30 13:43:54;;;;;;;10.48;4.53;;;;;;;;;;5032277;28;20040;-77
2021/06/30 13:46:38;;;;;;;15.00;4.95;;;;;;;;;;5032706;28;20032;-78
2021/06/30 13:49:23;;;;;;;8.60;4.18;;;;;;;;;;5005253;28;20041;-83
2021/06/30 13:52:08;;;;;;;10.43;3.85;;;;;;;;;;5045986;28;20044;-79
2021/06/30 13:54:53;;;;;;;8.13;3.55;;;;;;;;;;5037074;28;20037;-76
2021/06/30 13:57:38;;;;;;;9.52;4.18;;;;;;;;;;5028234;28;20044;-77
2021/06/30 14:00:23;;;;;;;11.15;5.10;;;;;;;;;;5030561;28;20044;-75
2021/06/30 14:03:09;;;;;;;14.38;4.80;;;;;;;;;;4998732;28;20045;-75
2021/06/30 14:05:54;;;;;;;10.77;3.40;;;;;;;;;;4990916;28;20768;-80
2021/06/30 14:08:43;;;;;;;5.95;3.53;;;;;;;;;;5018171;28;20042;-79
2021/06/30 14:11:30;;;;;;;5.88;2.78;;;;;;;;;;5036972;28;20048;-79
2021/06/30 14:14:17;;;;;;;4.40;2.67;;;;;;;;;;5038342;28;20049;-77
2021/06/30 14:17:03;;;;;;;5.47;2.58;;;;;;;;;;5022957;28;20044;-76
2021/06/30 14:19:49;;;;;;;5.03;2.50;;;;;;;;;;5005227;28;20384;-78
2021/06/30 14:22:35;;;;;;;4.55;2.45;;;;;;;;;;5011654;28;20644;-77
2021/06/30 14:25:21;;;;;;;3.70;2.15;;;;;;;;;;5025100;28;20768;-78
2021/06/30 14:28:06;;;;;;;7.35;2.58;;;;;;;;;;5021238;28;20380;-80
2021/06/30 14:30:52;;;;;;;4.95;2.67;;;;;;;;;;5023036;28;20041;-77
2021/06/30 14:33:37;;;;;;;7.63;3.25;;;;;;;;;;5026336;28;20046;-79
2021/06/30 14:36:22;;;;;;;14.15;4.07;;;;;;;;;;5033780;28;20040;-76
2021/06/30 14:39:08;;;;;;;11.32;3.60;;;;;;;;;;5018647;28;20495;-76
2021/06/30 14:41:53;;;;;;;6.20;3.00;;;;;;;;;;5031028;28;20037;-75
2021/06/30 14:44:38;;;;;;;14.43;9.57;;;;;;;;;;5014808;28;20405;-76
2021/06/30 14:47:25;;;;;;;11.63;7.95;;;;;;;;;;5027499;28;20038;-77
2021/06/30 14:50:11;;;;;;;7.25;2.63;;;;;;;;;;5033316;28;20230;-78
2021/06/30 14:52:56;;;;;;;6.55;2.13;;;;;;;;;;5032041;28;20041;-78
2021/06/30 14:55:41;;;;;;;3.63;2.10;;;;;;;;;;5025050;28;20037;-77
2021/06/30 14:58:29;;;;;;;6.20;2.40;;;;;;;;;;5027348;28;20029;-80
2021/06/30 15:01:14;;;;;;;9.95;2.85;;;;;;;;;;5022847;28;20045;-77
2021/06/30 15:03:59;;;;;;;15.13;5.28;;;;;;;;;;5032120;28;20840;-82
2021/06/30 15:06:45;;;;;;;10.05;4.70;;;;;;;;;;5037979;28;20392;-78
2021/06/30 15:09:30;;;;;;;7.75;3.75;;;;;;;;;;5033468;28;20525;-78
2021/06/30 15:12:19;;;;;;;10.90;6.85;;;;;;;;;;5029805;28;20057;-77
2021/06/30 15:15:04;;;;;;;18.80;12.48;;;;;;;;;;5029562;28;20495;-75
2021/06/30 15:17:51;;;;;;;8.75;4.45;;;;;;;;;;5035255;28;20831;-86
2021/06/30 15:20:36;;;;;;;8.93;2.35;;;;;;;;;;5023405;28;20037;-77
2021/06/30 15:23:21;;;;;;;5.25;1.98;;;;;;;;;;5039890;28;20037;-78
2021/06/30 15:26:06;;;;;;;8.30;2.03;;;;;;;;;;5036001;28;20041;-75
2021/06/30 15:28:51;;;;;;;5.57;1.95;;;;;;;;;;5030000;28;20041;-76
2021/06/30 15:31:36;;;;;;;3.53;1.75;;;;;;;;;;5036247;28;20033;-77
2021/06/30 15:34:21;;;;;;;7.07;2.00;;;;;;;;;;5034745;28;20049;-78
2021/06/30 15:37:06;;;;;;;6.55;3.92;;;;;;;;;;5040912;28;20045;-75
2021/06/30 15:39:54;;;;;;;11.55;6.78;;;;;;;;;;5036681;28;20385;-79
2021/06/30 15:42:40;;;;;;;7.82;3.67;;;;;;;;;;5029877;28;20040;-80
2021/06/30 15:45:25;;;;;;;9.25;2.78;;;;;;;;;;5030875;28;20405;-76
2021/06/30 15:48:10;;;;;;;4.78;2.17;;;;;;;;;;5026251;28;20037;-81
2021/06/30 15:50:55;;;;;;;5.43;2.10;;;;;;;;;;5030940;28;20503;-76
2021/06/30 15:53:40;;;;;;;8.73;3.53;;;;;;;;;;5029847;28;20049;-80
2021/06/30 15:56:38;;;;;;;5.40;2.75;;;;;;;;;;5022496;28;20036;-76
2021/06/30 15:59:24;;;;;;;5.88;2.72;;;;;;;;;;5032437;28;20037;-76
2021/06/30 16:02:09;;;;;;;4.10;1.98;;;;;;;;;;5039089;28;20037;-77
2021/06/30 16:04:54;;;;;;;6.13;2.80;;;;;;;;;;5039022;28;20045;-75
2021/06/30 16:07:42;;;;;;;5.38;2.30;;;;;;;;;;4989409;28;20029;-79
2021/06/30 16:10:27;;;;;;;7.63;1.98;;;;;;;;;;5022199;28;20041;-76
2021/06/30 16:13:12;;;;;;;7.07;2.53;;;;;;;;;;5042932;28;20041;-77
2021/06/30 16:15:57;;;;;;;11.60;3.30;;;;;;;;;;5036898;28;20037;-77
2021/06/30 16:18:42;;;;;;;5.45;2.42;;;;;;;;;;5033463;28;20525;-77
2021/06/30 16:21:28;;;;;;;5.75;2.45;;;;;;;;;;5035181;28;20041;-79
2021/06/30 16:24:14;;;;;;;5.72;2.90;;;;;;;;;;5037020;28;20033;-77
2021/06/30 16:26:59;;;;;;;5.82;2.85;;;;;;;;;;5036605;28;20037;-77
2021/06/30 16:29:44;;;;;;;5.88;2.53;;;;;;;;;;5027489;28;20033;-75
2021/06/30 16:32:29;;;;;;;3.60;1.70;;;;;;;;;;5030507;28;20080;-82
2021/06/30 16:35:14;;;;;;;4.57;2.20;;;;;;;;;;5026320;28;20364;-77
2021/06/30 16:37:59;;;;;;;4.97;2.13;;;;;;;;;;5031308;28;20037;-80
2021/06/30 16:41:11;;;;;;;8.32;2.08;;;;;;;;;;5026075;28;20033;-77
2021/06/30 16:43:56;;;;;;;5.97;2.38;;;;;;;;;;5012729;28;20029;-75
2021/06/30 16:46:42;;;;;;;7.93;2.15;;;;;;;;;;5003095;28;20033;-74
2021/06/30 16:49:27;;;;;;;3.95;1.75;;;;;;;;;;5027116;28;20648;-75